sensor_id;sensor_type;location;lat;lon;timestamp;temperature;humidity
50989;DHT22;37008;52.210;21.112;2023-04-25T00:01:40;10.80;99.90
50989;DHT22;37008;52.210;21.112;2023-04-25T00:04:05;10.80;99.90
50989;DHT22;37008;52.210;21.112;2023-04-25T00:06:32;10.80;99.90
50989;DHT22;37008;52.210;21.112;2023-04-25T00:08:58;10.80;99.90
50989;DHT22;37008;52.210;21.112;2023-04-25T00:11:24;10.70;99.90
50989;DHT22;37008;52.210;21.112;2023-04-25T00:13:50;10.70;99.90
50989;DHT22;37008;52.210;21.112;2023-04-25T00:16:19;10.70;99.90
50989;DHT22;37008;52.210;21.112;2023-04-25T00:18:45;10.60;99.90
50989;DHT22;37008;52.210;21.112;2023-04-25T00:21:17;10.60;99.90
50989;DHT22;37008;52.210;21.112;2023-04-25T00:23:43;10.60;99.90
50989;DHT22;37008;52.210;21.112;2023-04-25T00:26:11;10.40;99.90
50989;DHT22;37008;52.210;21.112;2023-04-25T00:28:37;10.50;99.90
50989;DHT22;37008;52.210;21.112;2023-04-25T00:31:03;10.40;99.90
50989;DHT22;37008;52.210;21.112;2023-04-25T00:33:29;10.30;99.90
50989;DHT22;37008;52.210;21.112;2023-04-25T00:35:55;10.10;99.90
50989;DHT22;37008;52.210;21.112;2023-04-25T00:38:21;10.20;99.90
50989;DHT22;37008;52.210;21.112;2023-04-25T00:40:47;10.10;99.90
50989;DHT22;37008;52.210;21.112;2023-04-25T00:43:12;10.00;99.90
50989;DHT22;37008;52.210;21.112;2023-04-25T00:45:39;9.90;99.90
50989;DHT22;37008;52.210;21.112;2023-04-25T00:48:05;9.90;99.90
50989;DHT22;37008;52.210;21.112;2023-04-25T00:50:32;9.90;99.90
50989;DHT22;37008;52.210;21.112;2023-04-25T00:52:58;9.90;99.90
50989;DHT22;37008;52.210;21.112;2023-04-25T00:55:24;9.90;99.90
50989;DHT22;37008;52.210;21.112;2023-04-25T00:57:50;9.90;99.90
50989;DHT22;37008;52.210;21.112;2023-04-25T01:00:16;9.90;99.90
50989;DHT22;37008;52.210;21.112;2023-04-25T01:02:41;9.80;99.90
50989;DHT22;37008;52.210;21.112;2023-04-25T01:05:08;9.80;99.90
50989;DHT22;37008;52.210;21.112;2023-04-25T01:07:34;9.80;99.90
50989;DHT22;37008;52.210;21.112;2023-04-25T01:10:00;9.80;99.90
50989;DHT22;37008;52.210;21.112;2023-04-25T01:12:26;9.70;99.90
50989;DHT22;37008;52.210;21.112;2023-04-25T01:14:52;9.70;99.90
50989;DHT22;37008;52.210;21.112;2023-04-25T01:17:18;9.70;99.90
50989;DHT22;37008;52.210;21.112;2023-04-25T01:19:44;9.70;99.90
50989;DHT22;37008;52.210;21.112;2023-04-25T01:22:11;9.60;99.90
50989;DHT22;37008;52.210;21.112;2023-04-25T01:24:37;9.60;99.90
50989;DHT22;37008;52.210;21.112;2023-04-25T01:27:03;9.50;99.90
50989;DHT22;37008;52.210;21.112;2023-04-25T01:29:29;9.50;99.90
50989;DHT22;37008;52.210;21.112;2023-04-25T01:31:55;9.50;99.90
50989;DHT22;37008;52.210;21.112;2023-04-25T01:34:23;9.40;99.90
50989;DHT22;37008;52.210;21.112;2023-04-25T01:36:50;9.30;99.90
50989;DHT22;37008;52.210;21.112;2023-04-25T01:39:16;9.30;99.90
50989;DHT22;37008;52.210;21.112;2023-04-25T01:41:49;9.30;99.90
50989;DHT22;37008;52.210;21.112;2023-04-25T01:44:15;9.20;99.90
50989;DHT22;37008;52.210;21.112;2023-04-25T01:46:40;9.20;99.90
50989;DHT22;37008;52.210;21.112;2023-04-25T01:49:07;9.10;99.90
50989;DHT22;37008;52.210;21.112;2023-04-25T01:51:32;9.10;99.90
50989;DHT22;37008;52.210;21.112;2023-04-25T01:53:58;9.00;99.90
50989;DHT22;37008;52.210;21.112;2023-04-25T01:56:25;9.10;99.90
50989;DHT22;37008;52.210;21.112;2023-04-25T01:58:51;9.10;99.90
50989;DHT22;37008;52.210;21.112;2023-04-25T02:01:16;9.20;99.90
50989;DHT22;37008;52.210;21.112;2023-04-25T02:03:43;9.20;99.90
50989;DHT22;37008;52.210;21.112;2023-04-25T02:06:08;9.30;99.90
50989;DHT22;37008;52.210;21.112;2023-04-25T02:08:34;9.50;99.90
50989;DHT22;37008;52.210;21.112;2023-04-25T02:11:00;9.70;99.90
50989;DHT22;37008;52.210;21.112;2023-04-25T02:13:25;9.90;99.90
50989;DHT22;37008;52.210;21.112;2023-04-25T02:15:51;10.10;99.90
50989;DHT22;37008;52.210;21.112;2023-04-25T02:18:16;10.20;99.90
50989;DHT22;37008;52.210;21.112;2023-04-25T02:20:43;10.30;99.90
50989;DHT22;37008;52.210;21.112;2023-04-25T02:23:09;10.40;99.90
50989;DHT22;37008;52.210;21.112;2023-04-25T02:25:35;10.50;99.90
50989;DHT22;37008;52.210;21.112;2023-04-25T02:28:00;10.50;99.90
50989;DHT22;37008;52.210;21.112;2023-04-25T02:30:26;10.60;99.90
50989;DHT22;37008;52.210;21.112;2023-04-25T02:32:52;10.60;99.90
50989;DHT22;37008;52.210;21.112;2023-04-25T02:35:17;10.60;99.90
50989;DHT22;37008;52.210;21.112;2023-04-25T02:37:43;10.60;99.90
50989;DHT22;37008;52.210;21.112;2023-04-25T02:40:09;10.60;99.90
50989;DHT22;37008;52.210;21.112;2023-04-25T02:42:35;10.60;99.90
50989;DHT22;37008;52.210;21.112;2023-04-25T02:45:01;10.60;99.90
50989;DHT22;37008;52.210;21.112;2023-04-25T02:47:27;10.60;99.90
50989;DHT22;37008;52.210;21.112;2023-04-25T02:49:53;10.50;99.90
50989;DHT22;37008;52.210;21.112;2023-04-25T02:52:19;10.50;99.90
50989;DHT22;37008;52.210;21.112;2023-04-25T02:54:44;10.50;99.90
50989;DHT22;37008;52.210;21.112;2023-04-25T02:57:10;10.50;99.90
50989;DHT22;37008;52.210;21.112;2023-04-25T02:59:35;10.50;99.90
50989;DHT22;37008;52.210;21.112;2023-04-25T03:02:01;10.50;99.90
50989;DHT22;37008;52.210;21.112;2023-04-25T03:04:27;10.40;99.90
50989;DHT22;37008;52.210;21.112;2023-04-25T03:06:52;10.40;99.90
50989;DHT22;37008;52.210;21.112;2023-04-25T03:09:19;10.40;99.90
50989;DHT22;37008;52.210;21.112;2023-04-25T03:11:45;10.40;99.90
50989;DHT22;37008;52.210;21.112;2023-04-25T03:14:11;10.50;99.90
50989;DHT22;37008;52.210;21.112;2023-04-25T03:16:36;10.40;99.90
50989;DHT22;37008;52.210;21.112;2023-04-25T03:19:03;10.40;99.90
50989;DHT22;37008;52.210;21.112;2023-04-25T03:21:29;10.40;99.90
50989;DHT22;37008;52.210;21.112;2023-04-25T03:23:57;10.40;99.90
50989;DHT22;37008;52.210;21.112;2023-04-25T03:26:23;10.40;99.90
50989;DHT22;37008;52.210;21.112;2023-04-25T03:28:48;10.50;99.90
50989;DHT22;37008;52.210;21.112;2023-04-25T03:31:14;10.40;99.90
50989;DHT22;37008;52.210;21.112;2023-04-25T03:33:40;10.50;99.90
50989;DHT22;37008;52.210;21.112;2023-04-25T03:36:06;10.50;99.90
50989;DHT22;37008;52.210;21.112;2023-04-25T03:38:31;10.50;99.90
50989;DHT22;37008;52.210;21.112;2023-04-25T03:40:57;10.60;99.90
50989;DHT22;37008;52.210;21.112;2023-04-25T03:43:22;10.70;99.90
50989;DHT22;37008;52.210;21.112;2023-04-25T03:45:48;10.60;99.90
50989;DHT22;37008;52.210;21.112;2023-04-25T03:48:14;10.70;99.90
50989;DHT22;37008;52.210;21.112;2023-04-25T03:50:39;10.70;99.90
50989;DHT22;37008;52.210;21.112;2023-04-25T03:53:05;10.70;99.90
50989;DHT22;37008;52.210;21.112;2023-04-25T03:55:31;10.80;99.90
50989;DHT22;37008;52.210;21.112;2023-04-25T03:57:57;10.80;99.90
50989;DHT22;37008;52.210;21.112;2023-04-25T04:00:24;10.90;99.90
50989;DHT22;37008;52.210;21.112;2023-04-25T04:02:49;10.90;99.90
50989;DHT22;37008;52.210;21.112;2023-04-25T04:05:15;10.90;99.90
50989;DHT22;37008;52.210;21.112;2023-04-25T04:07:40;10.90;99.90
50989;DHT22;37008;52.210;21.112;2023-04-25T04:10:11;11.00;99.90
50989;DHT22;37008;52.210;21.112;2023-04-25T04:12:37;10.90;99.90
50989;DHT22;37008;52.210;21.112;2023-04-25T04:15:04;11.00;99.90
50989;DHT22;37008;52.210;21.112;2023-04-25T04:17:31;11.00;99.90
50989;DHT22;37008;52.210;21.112;2023-04-25T04:19:57;11.00;99.90
50989;DHT22;37008;52.210;21.112;2023-04-25T04:22:23;11.00;99.90
50989;DHT22;37008;52.210;21.112;2023-04-25T04:24:49;11.10;99.90
50989;DHT22;37008;52.210;21.112;2023-04-25T04:27:17;11.10;99.90
50989;DHT22;37008;52.210;21.112;2023-04-25T04:29:43;11.10;99.90
50989;DHT22;37008;52.210;21.112;2023-04-25T04:32:08;11.20;99.90
50989;DHT22;37008;52.210;21.112;2023-04-25T04:34:34;11.10;99.90
50989;DHT22;37008;52.210;21.112;2023-04-25T04:37:00;11.10;99.90
50989;DHT22;37008;52.210;21.112;2023-04-25T04:39:26;11.20;99.90
50989;DHT22;37008;52.210;21.112;2023-04-25T04:41:51;11.20;99.90
50989;DHT22;37008;52.210;21.112;2023-04-25T04:44:17;11.20;99.90
50989;DHT22;37008;52.210;21.112;2023-04-25T04:46:43;11.20;99.90
50989;DHT22;37008;52.210;21.112;2023-04-25T04:49:10;11.30;99.90
50989;DHT22;37008;52.210;21.112;2023-04-25T04:51:36;11.30;99.90
50989;DHT22;37008;52.210;21.112;2023-04-25T04:54:02;11.30;99.90
50989;DHT22;37008;52.210;21.112;2023-04-25T04:56:29;11.40;99.90
50989;DHT22;37008;52.210;21.112;2023-04-25T04:58:57;11.40;99.90
50989;DHT22;37008;52.210;21.112;2023-04-25T05:01:22;11.40;99.90
50989;DHT22;37008;52.210;21.112;2023-04-25T05:03:48;11.50;99.90
50989;DHT22;37008;52.210;21.112;2023-04-25T05:06:15;11.50;99.90
50989;DHT22;37008;52.210;21.112;2023-04-25T05:08:41;11.50;99.90
50989;DHT22;37008;52.210;21.112;2023-04-25T05:11:07;11.60;99.90
50989;DHT22;37008;52.210;21.112;2023-04-25T05:13:32;11.60;99.90
50989;DHT22;37008;52.210;21.112;2023-04-25T05:15:58;11.70;99.90
50989;DHT22;37008;52.210;21.112;2023-04-25T05:18:23;11.60;99.90
50989;DHT22;37008;52.210;21.112;2023-04-25T05:20:49;11.60;99.90
50989;DHT22;37008;52.210;21.112;2023-04-25T05:23:15;11.60;99.90
50989;DHT22;37008;52.210;21.112;2023-04-25T05:25:41;11.60;99.90
50989;DHT22;37008;52.210;21.112;2023-04-25T05:28:07;11.60;99.90
50989;DHT22;37008;52.210;21.112;2023-04-25T05:30:34;11.60;99.90
50989;DHT22;37008;52.210;21.112;2023-04-25T05:33:00;11.50;99.90
50989;DHT22;37008;52.210;21.112;2023-04-25T05:35:25;11.40;99.90
50989;DHT22;37008;52.210;21.112;2023-04-25T05:37:51;11.40;99.90
50989;DHT22;37008;52.210;21.112;2023-04-25T05:40:17;11.40;99.90
50989;DHT22;37008;52.210;21.112;2023-04-25T05:42:42;11.40;99.90
50989;DHT22;37008;52.210;21.112;2023-04-25T05:45:08;11.20;99.90
50989;DHT22;37008;52.210;21.112;2023-04-25T05:47:34;11.20;99.90
50989;DHT22;37008;52.210;21.112;2023-04-25T05:50:00;11.20;99.90
50989;DHT22;37008;52.210;21.112;2023-04-25T05:52:26;11.20;99.90
50989;DHT22;37008;52.210;21.112;2023-04-25T05:54:51;11.30;99.90
50989;DHT22;37008;52.210;21.112;2023-04-25T05:57:24;11.30;99.90
50989;DHT22;37008;52.210;21.112;2023-04-25T05:59:50;11.30;99.90
50989;DHT22;37008;52.210;21.112;2023-04-25T06:02:16;11.40;99.90
50989;DHT22;37008;52.210;21.112;2023-04-25T06:04:42;11.40;99.90
50989;DHT22;37008;52.210;21.112;2023-04-25T06:07:08;11.40;99.90
50989;DHT22;37008;52.210;21.112;2023-04-25T06:09:34;11.40;99.90
50989;DHT22;37008;52.210;21.112;2023-04-25T06:11:59;11.30;99.90
50989;DHT22;37008;52.210;21.112;2023-04-25T06:14:26;11.20;99.90
50989;DHT22;37008;52.210;21.112;2023-04-25T06:16:52;11.20;99.90
50989;DHT22;37008;52.210;21.112;2023-04-25T06:19:17;11.10;99.90
50989;DHT22;37008;52.210;21.112;2023-04-25T06:21:44;11.10;99.90
50989;DHT22;37008;52.210;21.112;2023-04-25T06:24:10;11.00;99.90
50989;DHT22;37008;52.210;21.112;2023-04-25T06:26:35;10.90;99.90
50989;DHT22;37008;52.210;21.112;2023-04-25T06:29:01;10.80;99.90
50989;DHT22;37008;52.210;21.112;2023-04-25T06:31:27;10.70;99.90
50989;DHT22;37008;52.210;21.112;2023-04-25T06:33:54;10.60;99.90
50989;DHT22;37008;52.210;21.112;2023-04-25T06:36:20;10.50;99.90
50989;DHT22;37008;52.210;21.112;2023-04-25T06:38:50;10.40;99.90
50989;DHT22;37008;52.210;21.112;2023-04-25T06:41:17;10.30;99.90
50989;DHT22;37008;52.210;21.112;2023-04-25T06:43:42;10.10;99.90
50989;DHT22;37008;52.210;21.112;2023-04-25T06:46:08;10.00;99.90
50989;DHT22;37008;52.210;21.112;2023-04-25T06:48:33;10.00;99.90
50989;DHT22;37008;52.210;21.112;2023-04-25T06:50:59;9.90;99.90
50989;DHT22;37008;52.210;21.112;2023-04-25T06:53:24;9.90;99.90
50989;DHT22;37008;52.210;21.112;2023-04-25T06:55:50;9.90;99.90
50989;DHT22;37008;52.210;21.112;2023-04-25T06:58:16;9.90;99.90
50989;DHT22;37008;52.210;21.112;2023-04-25T07:00:42;9.90;99.90
50989;DHT22;37008;52.210;21.112;2023-04-25T07:03:07;9.90;99.90
50989;DHT22;37008;52.210;21.112;2023-04-25T07:05:33;9.90;99.90
50989;DHT22;37008;52.210;21.112;2023-04-25T07:07:59;9.90;99.90
50989;DHT22;37008;52.210;21.112;2023-04-25T07:10:25;9.90;99.90
50989;DHT22;37008;52.210;21.112;2023-04-25T07:12:51;10.00;99.90
50989;DHT22;37008;52.210;21.112;2023-04-25T07:15:17;10.00;99.90
50989;DHT22;37008;52.210;21.112;2023-04-25T07:17:42;10.10;99.90
50989;DHT22;37008;52.210;21.112;2023-04-25T07:20:08;10.20;99.90
50989;DHT22;37008;52.210;21.112;2023-04-25T07:22:35;10.20;99.90
50989;DHT22;37008;52.210;21.112;2023-04-25T07:25:00;10.20;99.90
50989;DHT22;37008;52.210;21.112;2023-04-25T07:27:26;10.20;99.90
50989;DHT22;37008;52.210;21.112;2023-04-25T07:29:52;10.20;99.90
50989;DHT22;37008;52.210;21.112;2023-04-25T07:32:17;10.10;99.90
50989;DHT22;37008;52.210;21.112;2023-04-25T07:34:43;10.30;99.90
50989;DHT22;37008;52.210;21.112;2023-04-25T07:37:08;10.30;99.90
50989;DHT22;37008;52.210;21.112;2023-04-25T07:39:34;10.30;99.90
50989;DHT22;37008;52.210;21.112;2023-04-25T07:42:00;10.30;99.90
50989;DHT22;37008;52.210;21.112;2023-04-25T07:44:27;10.30;99.90
50989;DHT22;37008;52.210;21.112;2023-04-25T07:46:52;10.20;99.90
50989;DHT22;37008;52.210;21.112;2023-04-25T07:49:18;10.30;99.90
50989;DHT22;37008;52.210;21.112;2023-04-25T07:51:44;10.30;99.90
50989;DHT22;37008;52.210;21.112;2023-04-25T07:54:13;10.30;99.90
50989;DHT22;37008;52.210;21.112;2023-04-25T07:56:39;10.30;99.90
50989;DHT22;37008;52.210;21.112;2023-04-25T07:59:04;10.30;99.90
50989;DHT22;37008;52.210;21.112;2023-04-25T08:01:30;10.30;99.90
50989;DHT22;37008;52.210;21.112;2023-04-25T08:03:56;10.40;99.90
50989;DHT22;37008;52.210;21.112;2023-04-25T08:06:21;10.40;99.90
50989;DHT22;37008;52.210;21.112;2023-04-25T08:08:47;10.50;99.90
50989;DHT22;37008;52.210;21.112;2023-04-25T08:11:13;10.50;99.90
50989;DHT22;37008;52.210;21.112;2023-04-25T08:13:38;10.50;99.90
50989;DHT22;37008;52.210;21.112;2023-04-25T08:16:04;10.60;99.90
50989;DHT22;37008;52.210;21.112;2023-04-25T08:18:30;10.70;99.90
50989;DHT22;37008;52.210;21.112;2023-04-25T08:20:56;10.80;99.90
50989;DHT22;37008;52.210;21.112;2023-04-25T08:23:22;10.80;99.90
50989;DHT22;37008;52.210;21.112;2023-04-25T08:25:47;10.80;99.90
50989;DHT22;37008;52.210;21.112;2023-04-25T08:28:13;10.80;99.90
50989;DHT22;37008;52.210;21.112;2023-04-25T08:30:40;10.80;99.90
50989;DHT22;37008;52.210;21.112;2023-04-25T08:33:06;10.70;99.90
50989;DHT22;37008;52.210;21.112;2023-04-25T08:35:31;10.70;99.90
50989;DHT22;37008;52.210;21.112;2023-04-25T08:37:58;10.80;99.90
50989;DHT22;37008;52.210;21.112;2023-04-25T08:40:27;10.80;99.90
50989;DHT22;37008;52.210;21.112;2023-04-25T08:42:58;10.80;99.90
50989;DHT22;37008;52.210;21.112;2023-04-25T08:45:27;10.80;99.90
50989;DHT22;37008;52.210;21.112;2023-04-25T08:47:54;10.70;99.90
50989;DHT22;37008;52.210;21.112;2023-04-25T08:50:22;10.60;99.90
50989;DHT22;37008;52.210;21.112;2023-04-25T08:52:49;10.50;99.90
50989;DHT22;37008;52.210;21.112;2023-04-25T08:55:18;10.50;99.90
50989;DHT22;37008;52.210;21.112;2023-04-25T08:57:45;10.50;99.90
50989;DHT22;37008;52.210;21.112;2023-04-25T09:00:12;10.40;99.90
50989;DHT22;37008;52.210;21.112;2023-04-25T09:02:39;10.40;99.90
50989;DHT22;37008;52.210;21.112;2023-04-25T09:05:05;10.30;99.90
50989;DHT22;37008;52.210;21.112;2023-04-25T09:07:32;10.30;99.90
50989;DHT22;37008;52.210;21.112;2023-04-25T09:09:58;10.20;99.90
50989;DHT22;37008;52.210;21.112;2023-04-25T09:12:27;10.10;99.90
50989;DHT22;37008;52.210;21.112;2023-04-25T09:17:29;10.00;99.90
50989;DHT22;37008;52.210;21.112;2023-04-25T09:19:55;9.80;99.90
50989;DHT22;37008;52.210;21.112;2023-04-25T09:22:30;9.80;99.90
50989;DHT22;37008;52.210;21.112;2023-04-25T09:24:55;9.80;99.90
50989;DHT22;37008;52.210;21.112;2023-04-25T09:27:21;9.70;99.90
50989;DHT22;37008;52.210;21.112;2023-04-25T09:29:57;9.70;99.90
50989;DHT22;37008;52.210;21.112;2023-04-25T09:32:24;9.60;99.90
50989;DHT22;37008;52.210;21.112;2023-04-25T09:34:55;9.60;99.90
50989;DHT22;37008;52.210;21.112;2023-04-25T09:39:50;9.40;99.90
50989;DHT22;37008;52.210;21.112;2023-04-25T09:42:16;9.40;99.90
50989;DHT22;37008;52.210;21.112;2023-04-25T09:44:44;9.40;99.90
50989;DHT22;37008;52.210;21.112;2023-04-25T09:47:11;9.40;99.90
50989;DHT22;37008;52.210;21.112;2023-04-25T09:49:40;9.40;99.90
50989;DHT22;37008;52.210;21.112;2023-04-25T09:52:13;9.40;99.90
50989;DHT22;37008;52.210;21.112;2023-04-25T09:54:38;9.50;99.90
50989;DHT22;37008;52.210;21.112;2023-04-25T09:57:12;9.50;99.90
50989;DHT22;37008;52.210;21.112;2023-04-25T09:59:43;9.40;99.90
50989;DHT22;37008;52.210;21.112;2023-04-25T10:02:09;9.50;99.90
50989;DHT22;37008;52.210;21.112;2023-04-25T10:04:37;9.50;99.90
50989;DHT22;37008;52.210;21.112;2023-04-25T10:07:05;9.40;99.90
50989;DHT22;37008;52.210;21.112;2023-04-25T10:09:32;9.40;99.90
50989;DHT22;37008;52.210;21.112;2023-04-25T10:12:02;9.50;99.90
50989;DHT22;37008;52.210;21.112;2023-04-25T10:14:30;9.60;99.90
50989;DHT22;37008;52.210;21.112;2023-04-25T10:16:57;9.70;99.90
50989;DHT22;37008;52.210;21.112;2023-04-25T10:19:24;9.60;99.90
50989;DHT22;37008;52.210;21.112;2023-04-25T10:22:03;9.60;99.90
50989;DHT22;37008;52.210;21.112;2023-04-25T10:24:29;9.60;99.90
50989;DHT22;37008;52.210;21.112;2023-04-25T10:26:56;9.60;99.90
50989;DHT22;37008;52.210;21.112;2023-04-25T10:29:26;9.60;99.90
50989;DHT22;37008;52.210;21.112;2023-04-25T10:31:52;9.50;99.90
50989;DHT22;37008;52.210;21.112;2023-04-25T10:34:18;9.50;99.90
50989;DHT22;37008;52.210;21.112;2023-04-25T10:36:50;9.60;99.90
50989;DHT22;37008;52.210;21.112;2023-04-25T10:39:27;9.60;99.90
50989;DHT22;37008;52.210;21.112;2023-04-25T10:42:02;9.70;99.90
50989;DHT22;37008;52.210;21.112;2023-04-25T10:44:28;9.70;99.90
50989;DHT22;37008;52.210;21.112;2023-04-25T10:46:55;9.80;99.90
50989;DHT22;37008;52.210;21.112;2023-04-25T10:49:41;9.90;99.90
50989;DHT22;37008;52.210;21.112;2023-04-25T10:52:25;9.90;99.90
50989;DHT22;37008;52.210;21.112;2023-04-25T10:54:54;9.90;99.90
50989;DHT22;37008;52.210;21.112;2023-04-25T10:57:44;9.90;99.90
50989;DHT22;37008;52.210;21.112;2023-04-25T11:00:17;9.80;99.90
50989;DHT22;37008;52.210;21.112;2023-04-25T11:02:45;9.80;99.90
50989;DHT22;37008;52.210;21.112;2023-04-25T11:07:56;9.60;99.90
50989;DHT22;37008;52.210;21.112;2023-04-25T11:10:27;9.70;99.90
50989;DHT22;37008;52.210;21.112;2023-04-25T11:12:53;9.60;99.90
50989;DHT22;37008;52.210;21.112;2023-04-25T11:15:19;9.60;99.90
50989;DHT22;37008;52.210;21.112;2023-04-25T11:17:44;9.60;99.90
50989;DHT22;37008;52.210;21.112;2023-04-25T11:20:12;9.60;99.90
50989;DHT22;37008;52.210;21.112;2023-04-25T11:22:39;9.60;99.90
50989;DHT22;37008;52.210;21.112;2023-04-25T11:25:09;9.70;99.90
50989;DHT22;37008;52.210;21.112;2023-04-25T11:27:53;9.80;99.90
50989;DHT22;37008;52.210;21.112;2023-04-25T11:30:20;9.80;99.90
50989;DHT22;37008;52.210;21.112;2023-04-25T11:32:46;9.80;99.90
50989;DHT22;37008;52.210;21.112;2023-04-25T11:35:12;9.90;99.90
50989;DHT22;37008;52.210;21.112;2023-04-25T11:37:42;9.90;99.90
50989;DHT22;37008;52.210;21.112;2023-04-25T11:40:08;10.00;99.90
50989;DHT22;37008;52.210;21.112;2023-04-25T11:42:42;10.00;99.90
50989;DHT22;37008;52.210;21.112;2023-04-25T11:45:08;10.00;99.90
50989;DHT22;37008;52.210;21.112;2023-04-25T11:47:35;10.10;99.90
50989;DHT22;37008;52.210;21.112;2023-04-25T11:50:05;10.10;99.90
50989;DHT22;37008;52.210;21.112;2023-04-25T11:52:42;10.10;99.90
50989;DHT22;37008;52.210;21.112;2023-04-25T11:55:09;10.10;99.90
50989;DHT22;37008;52.210;21.112;2023-04-25T11:57:38;10.10;99.90
50989;DHT22;37008;52.210;21.112;2023-04-25T12:00:09;10.00;99.90
50989;DHT22;37008;52.210;21.112;2023-04-25T12:02:36;10.20;99.90
50989;DHT22;37008;52.210;21.112;2023-04-25T12:05:05;10.20;99.90
50989;DHT22;37008;52.210;21.112;2023-04-25T12:07:31;10.20;99.90
50989;DHT22;37008;52.210;21.112;2023-04-25T12:09:57;10.20;99.90
50989;DHT22;37008;52.210;21.112;2023-04-25T12:12:27;10.20;99.90
50989;DHT22;37008;52.210;21.112;2023-04-25T12:14:53;10.20;99.90
50989;DHT22;37008;52.210;21.112;2023-04-25T12:17:21;10.30;99.90
50989;DHT22;37008;52.210;21.112;2023-04-25T12:19:47;10.30;99.90
50989;DHT22;37008;52.210;21.112;2023-04-25T12:22:21;10.20;99.90
50989;DHT22;37008;52.210;21.112;2023-04-25T12:24:47;10.30;99.90
50989;DHT22;37008;52.210;21.112;2023-04-25T12:27:15;10.30;99.90
50989;DHT22;37008;52.210;21.112;2023-04-25T12:29:54;10.30;99.90
50989;DHT22;37008;52.210;21.112;2023-04-25T12:32:20;10.30;99.90
50989;DHT22;37008;52.210;21.112;2023-04-25T12:34:45;10.20;99.90
50989;DHT22;37008;52.210;21.112;2023-04-25T12:37:11;10.30;99.90
50989;DHT22;37008;52.210;21.112;2023-04-25T12:39:37;10.20;99.90
50989;DHT22;37008;52.210;21.112;2023-04-25T12:42:03;10.30;99.90
50989;DHT22;37008;52.210;21.112;2023-04-25T12:44:28;10.30;99.90
50989;DHT22;37008;52.210;21.112;2023-04-25T12:46:54;10.30;99.90
50989;DHT22;37008;52.210;21.112;2023-04-25T12:49:20;10.30;99.90
50989;DHT22;37008;52.210;21.112;2023-04-25T12:51:46;10.40;99.90
50989;DHT22;37008;52.210;21.112;2023-04-25T12:54:16;10.50;99.90
50989;DHT22;37008;52.210;21.112;2023-04-25T12:56:42;10.50;99.90
50989;DHT22;37008;52.210;21.112;2023-04-25T12:59:08;10.50;99.90
50989;DHT22;37008;52.210;21.112;2023-04-25T13:01:34;10.50;99.90
50989;DHT22;37008;52.210;21.112;2023-04-25T13:04:00;10.50;99.90
50989;DHT22;37008;52.210;21.112;2023-04-25T13:06:26;10.50;99.90
50989;DHT22;37008;52.210;21.112;2023-04-25T13:08:52;10.50;99.90
50989;DHT22;37008;52.210;21.112;2023-04-25T13:11:18;10.50;99.90
50989;DHT22;37008;52.210;21.112;2023-04-25T13:13:44;10.50;99.90
50989;DHT22;37008;52.210;21.112;2023-04-25T13:16:09;10.50;99.90
50989;DHT22;37008;52.210;21.112;2023-04-25T13:18:35;10.50;99.90
50989;DHT22;37008;52.210;21.112;2023-04-25T13:21:01;10.50;99.90
50989;DHT22;37008;52.210;21.112;2023-04-25T13:23:29;10.50;99.90
50989;DHT22;37008;52.210;21.112;2023-04-25T13:25:55;10.50;99.90
50989;DHT22;37008;52.210;21.112;2023-04-25T13:28:26;10.50;99.90
50989;DHT22;37008;52.210;21.112;2023-04-25T13:30:52;10.60;99.90
50989;DHT22;37008;52.210;21.112;2023-04-25T13:33:18;10.50;99.90
50989;DHT22;37008;52.210;21.112;2023-04-25T13:35:44;10.40;99.90
50989;DHT22;37008;52.210;21.112;2023-04-25T13:38:12;10.40;99.90
50989;DHT22;37008;52.210;21.112;2023-04-25T13:40:38;10.30;99.90
50989;DHT22;37008;52.210;21.112;2023-04-25T13:43:04;10.30;99.90
50989;DHT22;37008;52.210;21.112;2023-04-25T13:45:32;10.30;99.90
50989;DHT22;37008;52.210;21.112;2023-04-25T13:47:57;10.30;99.90
50989;DHT22;37008;52.210;21.112;2023-04-25T13:50:23;10.30;99.90
50989;DHT22;37008;52.210;21.112;2023-04-25T13:52:48;10.30;99.90
50989;DHT22;37008;52.210;21.112;2023-04-25T13:55:14;10.30;99.90
50989;DHT22;37008;52.210;21.112;2023-04-25T13:57:40;10.30;99.90
50989;DHT22;37008;52.210;21.112;2023-04-25T14:00:08;10.30;99.90
50989;DHT22;37008;52.210;21.112;2023-04-25T14:02:36;10.30;99.90
50989;DHT22;37008;52.210;21.112;2023-04-25T14:05:03;10.30;99.90
50989;DHT22;37008;52.210;21.112;2023-04-25T14:07:29;10.30;99.90
50989;DHT22;37008;52.210;21.112;2023-04-25T14:09:55;10.10;99.90
50989;DHT22;37008;52.210;21.112;2023-04-25T14:12:22;10.10;99.90
50989;DHT22;37008;52.210;21.112;2023-04-25T14:14:48;10.00;99.90
50989;DHT22;37008;52.210;21.112;2023-04-25T14:17:14;9.90;99.90
50989;DHT22;37008;52.210;21.112;2023-04-25T14:19:39;9.80;99.90
50989;DHT22;37008;52.210;21.112;2023-04-25T14:22:10;9.60;99.90
50989;DHT22;37008;52.210;21.112;2023-04-25T14:24:36;9.50;99.90
50989;DHT22;37008;52.210;21.112;2023-04-25T14:27:02;9.40;99.90
50989;DHT22;37008;52.210;21.112;2023-04-25T14:29:27;9.40;99.90
50989;DHT22;37008;52.210;21.112;2023-04-25T14:31:53;9.30;99.90
50989;DHT22;37008;52.210;21.112;2023-04-25T14:34:19;9.30;99.90
50989;DHT22;37008;52.210;21.112;2023-04-25T14:36:45;9.20;99.90
50989;DHT22;37008;52.210;21.112;2023-04-25T14:39:12;9.10;99.90
50989;DHT22;37008;52.210;21.112;2023-04-25T14:41:37;9.10;99.90
50989;DHT22;37008;52.210;21.112;2023-04-25T14:44:04;9.10;99.90
50989;DHT22;37008;52.210;21.112;2023-04-25T14:46:30;9.00;99.90
50989;DHT22;37008;52.210;21.112;2023-04-25T14:48:56;9.00;99.90
50989;DHT22;37008;52.210;21.112;2023-04-25T14:51:22;9.00;99.90
50989;DHT22;37008;52.210;21.112;2023-04-25T14:53:47;9.00;99.90
50989;DHT22;37008;52.210;21.112;2023-04-25T14:56:13;9.10;99.90
50989;DHT22;37008;52.210;21.112;2023-04-25T14:58:39;9.10;99.90
50989;DHT22;37008;52.210;21.112;2023-04-25T15:01:05;9.10;99.90
50989;DHT22;37008;52.210;21.112;2023-04-25T15:03:32;9.00;99.90
50989;DHT22;37008;52.210;21.112;2023-04-25T15:05:58;9.00;99.90
50989;DHT22;37008;52.210;21.112;2023-04-25T15:08:23;9.10;99.90
50989;DHT22;37008;52.210;21.112;2023-04-25T15:10:49;9.00;99.90
50989;DHT22;37008;52.210;21.112;2023-04-25T15:13:18;9.10;99.90
50989;DHT22;37008;52.210;21.112;2023-04-25T15:15:44;9.10;99.90
50989;DHT22;37008;52.210;21.112;2023-04-25T15:18:22;9.10;99.90
50989;DHT22;37008;52.210;21.112;2023-04-25T15:20:52;9.20;99.90
50989;DHT22;37008;52.210;21.112;2023-04-25T15:23:19;9.20;99.90
50989;DHT22;37008;52.210;21.112;2023-04-25T15:25:45;9.20;99.90